Portada
METAR-TAF:

METAR-TAF

Aeroports :

Kabul, Afganistan

latitud: 34-38N, longitud: 069-12E, altitud: 1789 m

Observació

L'informe es va fer fa 46 minuts, a les 08:50 UTC
Vent 10 kt del Nord amb ràfegues de 20 kt, variant entre Nord/Nord-Oest i Est/Nord-Est
Temperatura 28°C
Humitat 15%
Pressió 1015 hPa
Visibilitat 10 km o més
Núvols disperses a una alçada de 7000 ft

METAR: OAKB 020850Z 36010G20KT 330V060 9999 SCT070 28/M01 Q1015 RMK A2999 BLU BLU

Hora: 14:06 (09:36 UTC)

Pronòstic

L'informe es va fer fa 4 hores i 31 minuts, a les 05:05 UTC
Pronòstic vàlid del 02 a les 06 UTC al 03 a les 06 UTC
Vent 10 kt del Nord
Visibilitat 10 km o més
sense núvols per sota de 1500 mi sense presència de cumulonimbus.
Temporalment
l' 02 a les 12 UTC al 02 a les 18 UTC
Vent 15 kt del Est/Nord-Est amb ràfegues de 35 kt
Evolucionant progressivament
l' 02 a les 20 UTC al 02 a les 22 UTC
Vent 5 kt del Nord

TAF: OAKB 020505Z 0206/0306 36010KT CAVOK TEMPO 0212/0218 06015G35KT BECMG 0220/0222 36005KT

Observacions i pronòstics meteorològics de més de 4000 aeroports (METAR i TAF).

Les estacions disponibles són els punts grocs i vermells al mapa.

Posi el ratolí al punt desitjat per veure el nom de l'estació.

Feu clic per veure les observacions i els pronòstics meteorològics.

Per canviar el mapa: feu clic els botons verds amb una creu de color negre per apropar; al botó verd amb un guió per allunyar la imatge; o en les fletxes verdes per a mapes adjacents.


METAR-TAF: